Time;durP1;ratioP1;P1;durP2;ratioP2;P2;SDS_P1;SDS_P2;PMS_P1;PMS_P2;Temp;Humidity;BMP_temperature;BMP_pressure;BME280_temperature;BME280_humidity;BME280_pressure;Samples;Min_cycle;Max_cycle;Signal;HPM_P1;HPM_P2
2022/03/30 00:02:15;;;;;;;;;;;;;;;6.36;48.72;96433.92;110878;1241;71559;-67
2022/03/30 00:04:44;;;;;;;;;;;;;;;6.31;49.06;96431.48;110625;1241;68586;-66
2022/03/30 00:07:14;;;;;;;;;;;;;;;6.27;47.29;96428.16;110791;1241;68733;-68
2022/03/30 00:09:44;;;;;;;;;;;;;;;6.24;47.18;96434.61;110803;1241;60481;-68
2022/03/30 00:12:13;;;;;;;;;;;;;;;6.21;47.54;96428.77;110893;1241;60859;-70
2022/03/30 00:14:43;;;;;;;;;;;;;;;6.19;45.66;96431.13;110766;1241;71558;-65
2022/03/30 00:17:13;;;;;;;;;;;;;;;6.19;45.31;96424.44;110845;1241;67916;-64
2022/03/30 00:19:44;;;;;;;;;;;;;;;6.19;45.46;96428.21;110755;1240;69372;-62
2022/03/30 00:22:14;;;;;;;;;;;;;;;6.20;47.16;96427.63;110829;1241;60499;-62
2022/03/30 00:24:46;;;;;;;;;;;;;;;6.19;49.20;96425.95;111050;1239;60481;-62
2022/03/30 00:27:15;;;;;;;;;;;;;;;6.17;50.55;96428.90;111064;1239;71613;-62
2022/03/30 00:29:45;;;;;;;;;;;;;;;6.12;50.68;96426.41;111201;1240;68565;-64
2022/03/30 00:32:14;;;;;;;;;;;;;;;6.09;50.77;96421.61;111131;1239;69338;-66
2022/03/30 00:34:44;;;;;;;;;;;;;;;6.05;48.99;96418.30;111102;1238;60980;-66
2022/03/30 00:37:15;;;;;;;;;;;;;;;6.02;48.99;96420.27;110867;1241;60523;-66
2022/03/30 00:39:45;;;;;;;;;;;;;;;5.98;49.30;96417.02;111143;1240;72603;-66
2022/03/30 00:42:19;;;;;;;;;;;;;;;5.96;52.31;96417.39;111178;1239;68548;-63
2022/03/30 00:44:49;;;;;;;;;;;;;;;5.90;49.07;96414.99;111116;1239;69393;-64
2022/03/30 00:47:26;;;;;;;;;;;;;;;5.86;48.40;96417.31;110916;1240;60533;-65
2022/03/30 00:49:55;;;;;;;;;;;;;;;5.83;48.50;96411.16;110850;1241;60479;-63
2022/03/30 00:52:25;;;;;;;;;;;;;;;5.82;48.01;96408.81;110808;1241;72267;-65
2022/03/30 00:54:57;;;;;;;;;;;;;;;5.81;47.07;96408.56;110680;1241;68411;-63
2022/03/30 00:57:29;;;;;;;;;;;;;;;5.81;47.12;96407.84;110810;1240;68471;-63
2022/03/30 00:59:59;;;;;;;;;;;;;;;5.80;47.61;96406.00;110885;1241;60545;-63
2022/03/30 01:02:30;;;;;;;;;;;;;;;5.79;48.61;96403.83;111088;1238;60427;-63
2022/03/30 01:05:00;;;;;;;;;;;;;;;5.76;49.15;96404.54;111122;1240;72321;-62
2022/03/30 01:07:30;;;;;;;;;;;;;;;5.71;49.15;96402.16;111075;1240;68550;-62
2022/03/30 01:09:59;;;;;;;;;;;;;;;5.63;49.68;96400.95;110812;1241;68570;-68
2022/03/30 01:12:31;;;;;;;;;;;;;;;5.54;50.47;96399.33;111156;1238;60513;-65
2022/03/30 01:15:01;;;;;;;;;;;;;;;5.47;50.90;96397.58;111021;1239;60516;-63
2022/03/30 01:17:31;;;;;;;;;;;;;;;5.44;50.99;96398.15;111120;1239;72302;-64
2022/03/30 01:20:01;;;;;;;;;;;;;;;5.43;51.44;96402.33;110925;1241;68406;-62
2022/03/30 01:22:31;;;;;;;;;;;;;;;5.44;52.36;96402.98;111096;1239;68819;-63
2022/03/30 01:25:01;;;;;;;;;;;;;;;5.42;51.11;96397.70;110826;1241;60515;-64
2022/03/30 01:27:32;;;;;;;;;;;;;;;5.42;52.00;96397.36;110807;1241;60538;-62
2022/03/30 01:33:02;;;;;;;;;;;;;;;5.41;52.34;96402.13;110898;1241;67720;-64
2022/03/30 01:35:33;;;;;;;;;;;;;;;5.36;53.61;96398.28;110757;1241;68446;-63
2022/03/30 01:38:04;;;;;;;;;;;;;;;5.33;52.68;96395.78;110831;1241;60516;-66
2022/03/30 01:40:34;;;;;;;;;;;;;;;5.30;52.51;96394.94;111121;1239;60539;-67
2022/03/30 01:43:03;;;;;;;;;;;;;;;5.29;51.99;96394.16;111135;1239;71553;-67
2022/03/30 01:45:34;;;;;;;;;;;;;;;5.28;53.51;96392.79;110885;1240;67613;-67
2022/03/30 01:48:04;;;;;;;;;;;;;;;5.28;54.11;96394.56;110811;1241;68601;-66
2022/03/30 01:50:36;;;;;;;;;;;;;;;5.24;54.89;96398.11;110996;1239;60454;-65
2022/03/30 01:53:07;;;;;;;;;;;;;;;5.20;52.16;96396.45;111050;1240;60470;-63
2022/03/30 01:55:38;;;;;;;;;;;;;;;5.18;51.27;96394.54;110679;1241;71554;-63
2022/03/30 01:58:08;;;;;;;;;;;;;;;5.15;51.47;96390.10;110815;1241;67775;-63
2022/03/30 02:00:38;;;;;;;;;;;;;;;5.09;52.23;96391.66;110870;1241;69254;-63
2022/03/30 02:03:08;;;;;;;;;;;;;;;5.03;51.96;96387.95;110910;1240;60504;-66
2022/03/30 02:05:39;;;;;;;;;;;;;;;4.95;53.42;96391.35;110861;1241;60499;-68
2022/03/30 02:08:11;;;;;;;;;;;;;;;4.87;55.99;96392.59;110915;1240;71458;-65
2022/03/30 02:10:40;;;;;;;;;;;;;;;4.80;56.93;96389.95;110851;1241;68595;-66
2022/03/30 02:13:10;;;;;;;;;;;;;;;4.74;56.70;96394.68;110770;1241;68608;-67
2022/03/30 02:15:40;;;;;;;;;;;;;;;4.68;54.83;96394.55;111105;1240;60561;-66
2022/03/30 02:18:11;;;;;;;;;;;;;;;4.62;52.69;96389.93;110837;1241;60540;-64
2022/03/30 02:20:42;;;;;;;;;;;;;;;4.57;54.09;96391.64;110719;1241;71762;-65
2022/03/30 02:23:12;;;;;;;;;;;;;;;4.52;56.06;96391.81;110852;1240;68603;-66
2022/03/30 02:25:42;;;;;;;;;;;;;;;4.46;54.09;96391.69;110951;1240;69425;-63
2022/03/30 02:28:13;;;;;;;;;;;;;;;4.41;53.64;96387.00;110899;1240;60478;-63
2022/03/30 02:30:42;;;;;;;;;;;;;;;4.37;56.02;96388.64;111143;1239;60456;-65
2022/03/30 02:33:11;;;;;;;;;;;;;;;4.29;58.49;96387.10;110729;1241;72531;-65
2022/03/30 02:35:41;;;;;;;;;;;;;;;4.20;58.35;96388.88;110982;1240;67598;-62
2022/03/30 02:38:10;;;;;;;;;;;;;;;4.10;58.52;96388.11;110795;1240;67819;-69
2022/03/30 02:40:40;;;;;;;;;;;;;;;3.99;58.56;96398.09;111040;1241;60563;-65
2022/03/30 02:43:10;;;;;;;;;;;;;;;3.87;55.83;96397.98;110870;1240;60478;-63
2022/03/30 02:45:40;;;;;;;;;;;;;;;3.79;55.82;96399.99;111034;1238;72367;-62
2022/03/30 02:48:19;;;;;;;;;;;;;;;3.76;56.43;96398.66;110847;1241;68487;-62
2022/03/30 02:50:51;;;;;;;;;;;;;;;3.75;54.43;96395.96;110856;1241;68657;-64
2022/03/30 02:53:22;;;;;;;;;;;;;;;3.76;58.11;96399.91;110808;1240;60443;-63
2022/03/30 02:55:51;;;;;;;;;;;;;;;3.65;58.69;96399.20;110385;1241;555316;-64
2022/03/30 02:58:21;;;;;;;;;;;;;;;3.55;60.14;96397.70;111070;1240;72061;-64
2022/03/30 03:00:51;;;;;;;;;;;;;;;3.48;60.40;96400.20;110989;1240;68451;-63
2022/03/30 03:03:21;;;;;;;;;;;;;;;3.42;56.64;96397.49;110735;1240;68927;-67
2022/03/30 03:05:51;;;;;;;;;;;;;;;3.41;55.68;96400.11;110672;1240;60569;-65
2022/03/30 03:08:21;;;;;;;;;;;;;;;3.41;55.63;96405.30;110945;1241;60472;-67
2022/03/30 03:10:50;;;;;;;;;;;;;;;3.39;58.40;96404.86;111093;1240;72300;-64
2022/03/30 03:13:20;;;;;;;;;;;;;;;3.37;58.05;96403.98;111021;1240;68394;-65
2022/03/30 03:15:50;;;;;;;;;;;;;;;3.33;59.99;96403.89;111088;1240;69419;-63
2022/03/30 03:18:20;;;;;;;;;;;;;;;3.28;61.06;96406.94;110791;1241;60498;-62
2022/03/30 03:20:50;;;;;;;;;;;;;;;3.24;61.15;96407.33;111047;1240;60479;-63
2022/03/30 03:23:19;;;;;;;;;;;;;;;3.23;61.14;96404.46;110883;1239;72333;-62
2022/03/30 03:25:49;;;;;;;;;;;;;;;3.23;60.71;96403.40;110894;1241;68641;-63
2022/03/30 03:28:19;;;;;;;;;;;;;;;3.24;60.01;96400.27;110752;1241;69432;-65
2022/03/30 03:30:48;;;;;;;;;;;;;;;3.24;60.19;96404.23;110752;1241;60578;-65
2022/03/30 03:33:18;;;;;;;;;;;;;;;3.21;59.42;96406.49;110959;1239;60476;-66
2022/03/30 03:35:47;;;;;;;;;;;;;;;3.20;61.16;96406.40;110972;1240;73673;-65
2022/03/30 03:38:18;;;;;;;;;;;;;;;3.19;61.44;96411.42;110862;1241;68636;-63
2022/03/30 03:40:47;;;;;;;;;;;;;;;3.18;58.92;96409.27;110841;1240;69371;-63
2022/03/30 03:43:17;;;;;;;;;;;;;;;3.16;59.61;96409.74;111047;1238;60537;-64
2022/03/30 03:45:46;;;;;;;;;;;;;;;3.12;59.69;96409.98;110755;1241;60373;-66
2022/03/30 03:48:16;;;;;;;;;;;;;;;3.06;59.68;96406.32;110706;1241;72196;-67
2022/03/30 03:50:46;;;;;;;;;;;;;;;3.03;61.17;96402.23;110783;1241;68922;-67
2022/03/30 03:53:15;;;;;;;;;;;;;;;2.98;62.66;96406.08;110792;1241;68442;-67
2022/03/30 03:55:44;;;;;;;;;;;;;;;2.95;58.71;96400.44;110765;1241;60488;-68
2022/03/30 03:58:13;;;;;;;;;;;;;;;2.94;62.39;96401.01;110926;1239;60606;-67
2022/03/30 04:00:42;;;;;;;;;;;;;;;2.93;63.52;96400.73;111094;1239;71698;-65
2022/03/30 04:03:12;;;;;;;;;;;;;;;2.93;64.69;96407.98;110677;1241;68593;-66
2022/03/30 04:05:42;;;;;;;;;;;;;;;2.91;63.44;96407.73;110740;1241;70082;-63
2022/03/30 04:08:11;;;;;;;;;;;;;;;2.90;63.99;96407.60;110725;1241;60525;-66
2022/03/30 04:10:42;;;;;;;;;;;;;;;2.89;64.11;96410.07;110734;1240;60508;-65
2022/03/30 04:13:14;;;;;;;;;;;;;;;2.90;63.35;96411.93;110720;1241;71986;-65
2022/03/30 04:15:43;;;;;;;;;;;;;;;2.90;63.64;96413.80;110967;1241;68621;-62
2022/03/30 04:18:12;;;;;;;;;;;;;;;2.90;62.45;96417.09;110890;1239;69472;-68
2022/03/30 04:20:43;;;;;;;;;;;;;;;2.89;62.66;96416.11;110628;1241;60470;-69
2022/03/30 04:23:13;;;;;;;;;;;;;;;2.87;62.43;96417.63;110641;1241;60457;-66
2022/03/30 04:25:43;;;;;;;;;;;;;;;2.87;61.69;96417.11;110668;1241;71541;-66
2022/03/30 04:28:17;;;;;;;;;;;;;;;2.89;64.56;96418.70;110681;1241;67921;-67
2022/03/30 04:30:46;;;;;;;;;;;;;;;2.91;62.34;96414.98;110758;1241;69451;-64
2022/03/30 04:33:15;;;;;;;;;;;;;;;2.92;61.91;96415.39;110924;1241;60469;-63
2022/03/30 04:35:45;;;;;;;;;;;;;;;2.95;63.49;96420.41;110745;1241;60983;-63
2022/03/30 04:38:14;;;;;;;;;;;;;;;2.93;63.58;96421.35;110790;1241;72338;-63
2022/03/30 04:40:45;;;;;;;;;;;;;;;2.91;64.48;96425.64;110741;1239;69178;-63
2022/03/30 04:43:14;;;;;;;;;;;;;;;2.90;64.74;96432.03;110978;1239;69406;-63
2022/03/30 04:45:43;;;;;;;;;;;;;;;2.91;65.09;96429.42;110835;1240;60616;-68
2022/03/30 04:48:13;;;;;;;;;;;;;;;2.95;65.06;96432.61;111000;1241;60487;-65
2022/03/30 04:50:43;;;;;;;;;;;;;;;3.01;65.03;96435.34;110861;1240;72394;-67
2022/03/30 04:53:12;;;;;;;;;;;;;;;3.10;64.73;96429.51;110920;1241;67849;-68
2022/03/30 04:55:42;;;;;;;;;;;;;;;3.22;64.08;96431.05;110940;1241;68640;-67
2022/03/30 04:58:11;;;;;;;;;;;;;;;3.35;62.88;96433.02;110838;1241;60550;-63
2022/03/30 05:00:41;;;;;;;;;;;;;;;3.49;63.78;96437.20;110658;1241;60533;-65
2022/03/30 05:03:10;;;;;;;;;;;;;;;3.63;63.50;96438.76;110880;1241;72403;-68
2022/03/30 05:05:39;;;;;;;;;;;;;;;3.79;63.50;96441.08;110749;1241;68643;-67
2022/03/30 05:08:09;;;;;;;;;;;;;;;3.95;62.23;96442.46;110795;1241;68607;-63
2022/03/30 05:10:39;;;;;;;;;;;;;;;4.09;61.92;96442.11;110716;1241;60538;-67
2022/03/30 05:13:09;;;;;;;;;;;;;;;4.28;61.54;96445.13;111033;1240;60458;-66
2022/03/30 05:15:38;;;;;;;;;;;;;;;4.47;60.81;96434.02;110777;1241;73069;-63
2022/03/30 05:18:08;;;;;;;;;;;;;;;4.66;60.44;96436.64;110574;1241;68655;-62
2022/03/30 05:20:42;;;;;;;;;;;;;;;4.85;59.92;96430.90;110855;1241;69467;-63
2022/03/30 05:23:11;;;;;;;;;;;;;;;5.10;59.74;96436.84;110769;1241;60524;-64
2022/03/30 05:25:41;;;;;;;;;;;;;;;5.40;60.19;96437.24;110934;1240;61066;-63
2022/03/30 05:28:10;;;;;;;;;;;;;;;5.70;58.79;96440.25;110800;1241;73000;-65
2022/03/30 05:30:40;;;;;;;;;;;;;;;6.04;58.23;96434.62;110806;1241;67815;-66
2022/03/30 05:33:09;;;;;;;;;;;;;;;6.36;57.45;96431.80;110726;1241;68811;-63
2022/03/30 05:35:38;;;;;;;;;;;;;;;6.67;56.19;96435.88;110746;1241;60480;-68
2022/03/30 05:38:08;;;;;;;;;;;;;;;6.81;55.81;96428.44;110705;1241;60437;-63
2022/03/30 05:40:37;;;;;;;;;;;;;;;7.04;55.30;96428.44;110827;1239;72388;-64
2022/03/30 05:43:07;;;;;;;;;;;;;;;7.27;54.28;96430.02;110819;1241;67796;-63
2022/03/30 05:45:37;;;;;;;;;;;;;;;7.48;53.76;96428.29;110811;1240;69197;-64
2022/03/30 05:48:06;;;;;;;;;;;;;;;7.76;52.87;96430.10;110824;1241;60494;-63
2022/03/30 05:50:39;;;;;;;;;;;;;;;7.98;51.92;96429.42;110850;1241;60549;-63
2022/03/30 05:53:08;;;;;;;;;;;;;;;8.36;51.64;96425.40;110805;1241;72170;-65
2022/03/30 05:55:38;;;;;;;;;;;;;;;8.77;51.28;96422.52;110739;1241;67794;-66
2022/03/30 05:58:07;;;;;;;;;;;;;;;9.18;50.64;96422.98;110830;1241;69295;-67
2022/03/30 06:00:37;;;;;;;;;;;;;;;9.54;49.22;96421.88;110841;1241;60643;-67
2022/03/30 06:03:08;;;;;;;;;;;;;;;9.83;50.56;96424.41;110787;1241;60464;-65
2022/03/30 06:05:37;;;;;;;;;;;;;;;10.00;48.22;96423.73;110849;1241;72400;-62
2022/03/30 06:08:07;;;;;;;;;;;;;;;9.94;46.26;96428.02;110774;1241;67613;-65
2022/03/30 06:10:37;;;;;;;;;;;;;;;9.99;47.11;96428.80;110843;1241;68791;-63
2022/03/30 06:13:07;;;;;;;;;;;;;;;10.02;46.57;96434.45;110588;1241;60472;-63
2022/03/30 06:15:38;;;;;;;;;;;;;;;9.97;48.84;96430.88;110843;1241;60505;-64
2022/03/30 06:18:11;;;;;;;;;;;;;;;9.95;47.52;96431.09;110866;1240;72410;-63
2022/03/30 06:20:41;;;;;;;;;;;;;;;9.95;48.47;96426.52;110855;1241;67817;-64
2022/03/30 06:23:11;;;;;;;;;;;;;;;10.06;48.20;96424.90;110878;1240;69330;-63
2022/03/30 06:25:40;;;;;;;;;;;;;;;10.16;47.09;96425.58;110981;1239;60494;-65
2022/03/30 06:28:10;;;;;;;;;;;;;;;10.32;46.44;96426.36;110812;1241;60526;-67
2022/03/30 06:30:40;;;;;;;;;;;;;;;10.63;47.65;96425.48;111225;1239;71789;-66
2022/03/30 06:33:10;;;;;;;;;;;;;;;11.03;45.61;96424.54;110816;1241;66935;-67
2022/03/30 06:35:39;;;;;;;;;;;;;;;11.45;45.03;96429.77;110908;1241;69421;-66
2022/03/30 06:38:09;;;;;;;;;;;;;;;11.85;45.25;96430.00;110972;1240;60466;-64
2022/03/30 06:40:38;;;;;;;;;;;;;;;12.36;43.16;96440.52;110873;1241;60451;-66
2022/03/30 06:43:08;;;;;;;;;;;;;;;12.73;42.30;96438.04;110970;1240;71161;-64
2022/03/30 06:45:38;;;;;;;;;;;;;;;13.18;41.94;96436.05;110717;1241;68667;-63
2022/03/30 06:48:13;;;;;;;;;;;;;;;13.59;38.38;96441.06;110879;1241;68670;-64
2022/03/30 06:50:42;;;;;;;;;;;;;;;13.75;37.65;96441.43;110721;1241;60602;-65
2022/03/30 06:53:11;;;;;;;;;;;;;;;13.89;38.11;96445.82;110913;1238;60534;-64
2022/03/30 06:55:41;;;;;;;;;;;;;;;14.18;36.78;96450.17;110858;1241;71531;-61
2022/03/30 06:58:11;;;;;;;;;;;;;;;14.47;34.92;96452.09;111058;1240;67863;-63
2022/03/30 07:00:40;;;;;;;;;;;;;;;14.73;33.87;96447.64;110868;1240;67838;-66
2022/03/30 07:03:10;;;;;;;;;;;;;;;14.76;33.74;96449.45;110864;1241;61009;-66
2022/03/30 07:05:40;;;;;;;;;;;;;;;14.91;33.34;96453.30;110897;1240;60480;-66
2022/03/30 07:10:57;;;;;;;;;;;;;;;15.12;32.78;96446.50;110982;1240;68628;-68
2022/03/30 07:13:27;;;;;;;;;;;;;;;15.33;32.45;96444.44;110712;1241;69357;-67
2022/03/30 07:15:57;;;;;;;;;;;;;;;15.45;32.20;96449.66;110760;1241;60522;-67
2022/03/30 07:18:27;;;;;;;;;;;;;;;15.61;31.54;96447.44;110856;1241;60491;-62
2022/03/30 07:20:57;;;;;;;;;;;;;;;15.72;31.34;96455.02;110720;1241;72281;-65
2022/03/30 07:23:26;;;;;;;;;;;;;;;15.85;30.95;96455.23;111060;1240;68668;-66
2022/03/30 07:26:00;;;;;;;;;;;;;;;15.92;31.13;96448.33;110811;1241;68562;-66
2022/03/30 07:28:30;;;;;;;;;;;;;;;16.19;30.44;96449.14;111051;1241;60545;-63
2022/03/30 07:30:59;;;;;;;;;;;;;;;16.40;29.83;96453.55;110889;1241;60481;-64
2022/03/30 07:33:29;;;;;;;;;;;;;;;16.33;30.04;96448.88;110952;1241;72393;-63
2022/03/30 07:35:59;;;;;;;;;;;;;;;16.42;29.92;96450.24;110899;1241;67801;-63
2022/03/30 07:38:29;;;;;;;;;;;;;;;16.55;29.75;96449.92;110744;1241;68440;-63
2022/03/30 07:41:00;;;;;;;;;;;;;;;16.57;29.91;96450.38;110940;1241;61373;-63
2022/03/30 07:43:29;;;;;;;;;;;;;;;16.73;29.67;96443.14;110786;1241;60459;-67
2022/03/30 07:45:59;;;;;;;;;;;;;;;16.96;28.94;96446.21;110928;1240;72256;-63
2022/03/30 07:48:29;;;;;;;;;;;;;;;16.79;29.12;96447.02;110870;1240;68444;-66
2022/03/30 07:50:58;;;;;;;;;;;;;;;16.72;29.23;96454.52;110958;1241;68435;-64
2022/03/30 07:53:30;;;;;;;;;;;;;;;16.83;29.41;96444.31;111046;1241;60507;-65
2022/03/30 07:55:59;;;;;;;;;;;;;;;17.31;28.22;96445.71;110812;1241;60452;-65
2022/03/30 07:58:28;;;;;;;;;;;;;;;17.02;28.52;96446.88;111028;1239;71873;-64
2022/03/30 08:00:58;;;;;;;;;;;;;;;17.18;28.58;96449.23;110723;1241;67661;-68
2022/03/30 08:03:28;;;;;;;;;;;;;;;17.31;27.78;96446.69;110824;1241;69313;-66
2022/03/30 08:05:57;;;;;;;;;;;;;;;17.41;27.74;96447.36;111103;1241;60463;-66
2022/03/30 08:08:27;;;;;;;;;;;;;;;17.15;28.06;96446.21;111003;1239;60457;-65
2022/03/30 08:10:56;;;;;;;;;;;;;;;17.08;28.07;96452.33;110985;1239;72357;-65
2022/03/30 08:13:26;;;;;;;;;;;;;;;17.39;27.69;96447.73;111115;1240;68179;-66
2022/03/30 08:15:56;;;;;;;;;;;;;;;17.62;27.33;96435.14;111108;1240;69211;-66
2022/03/30 08:18:25;;;;;;;;;;;;;;;17.80;27.39;96435.80;111067;1240;60488;-68
2022/03/30 08:23:43;;;;;;;;;;;;;;;18.51;26.72;96434.52;110940;1241;72368;-65
2022/03/30 08:26:12;;;;;;;;;;;;;;;18.45;26.55;96435.24;111132;1239;68535;-66
2022/03/30 08:28:41;;;;;;;;;;;;;;;18.60;26.33;96429.47;110864;1241;68251;-66
2022/03/30 08:31:11;;;;;;;;;;;;;;;18.83;25.96;96431.16;110808;1241;60884;-65
2022/03/30 08:33:40;;;;;;;;;;;;;;;18.98;26.00;96428.00;110830;1241;60606;-64
2022/03/30 08:36:10;;;;;;;;;;;;;;;19.15;24.99;96434.02;110733;1241;72357;-64
2022/03/30 08:38:39;;;;;;;;;;;;;;;18.64;24.70;96425.34;110816;1241;67898;-65
2022/03/30 08:41:09;;;;;;;;;;;;;;;18.19;25.33;96424.73;110891;1240;68516;-65
2022/03/30 08:43:40;;;;;;;;;;;;;;;18.94;24.77;96419.99;111020;1240;60557;-63
2022/03/30 08:46:09;;;;;;;;;;;;;;;18.59;24.47;96422.27;111113;1240;60481;-63
2022/03/30 08:48:39;;;;;;;;;;;;;;;18.84;24.28;96412.52;110701;1241;71481;-61
2022/03/30 08:51:10;;;;;;;;;;;;;;;18.81;23.68;96423.98;111152;1239;68547;-65
2022/03/30 08:53:39;;;;;;;;;;;;;;;19.16;23.13;96413.21;110879;1240;67623;-66
2022/03/30 08:56:08;;;;;;;;;;;;;;;19.06;23.68;96413.20;110839;1241;60459;-67
2022/03/30 08:58:38;;;;;;;;;;;;;;;19.00;23.43;96418.10;110902;1241;60504;-67
2022/03/30 09:01:09;;;;;;;;;;;;;;;18.88;23.34;96417.67;110847;1241;72135;-64
2022/03/30 09:03:54;;;;;;;;;;;;;;;18.61;23.68;96419.08;110987;1240;68651;-64
2022/03/30 09:06:28;;;;;;;;;;;;;;;19.16;22.77;96412.35;110771;1240;69462;-65
2022/03/30 09:08:58;;;;;;;;;;;;;;;19.23;22.77;96396.08;111094;1241;60556;-67
2022/03/30 09:11:30;;;;;;;;;;;;;;;19.23;22.62;96404.37;111191;1240;60446;-65
2022/03/30 09:14:05;;;;;;;;;;;;;;;19.76;21.76;96406.62;110742;1241;71115;-66
2022/03/30 09:16:39;;;;;;;;;;;;;;;19.58;21.81;96406.38;110932;1240;67797;-66
2022/03/30 09:19:09;;;;;;;;;;;;;;;19.14;22.28;96386.83;110680;1241;68579;-66
2022/03/30 09:21:41;;;;;;;;;;;;;;;18.98;22.30;96388.38;110898;1241;60489;-63
2022/03/30 09:24:11;;;;;;;;;;;;;;;19.47;21.91;96393.39;110818;1239;60444;-65
2022/03/30 09:26:42;;;;;;;;;;;;;;;19.77;21.83;96396.30;110752;1241;71759;-62
2022/03/30 09:29:11;;;;;;;;;;;;;;;20.06;21.23;96386.88;111065;1240;68402;-64
2022/03/30 09:31:41;;;;;;;;;;;;;;;20.17;21.32;96380.95;110734;1241;68662;-62
2022/03/30 09:34:11;;;;;;;;;;;;;;;20.07;20.98;96375.39;110691;1241;60493;-64
2022/03/30 09:36:41;;;;;;;;;;;;;;;20.01;21.15;96374.23;110836;1241;60491;-62
2022/03/30 09:39:28;;;;;;;;;;;;;;;20.41;20.91;96371.74;110933;1241;71035;-62
2022/03/30 09:41:59;;;;;;;;;;;;;;;20.44;20.88;96362.89;110765;1241;67190;-66
2022/03/30 09:44:30;;;;;;;;;;;;;;;20.90;20.24;96374.44;110838;1241;68899;-63
2022/03/30 09:47:03;;;;;;;;;;;;;;;20.51;20.29;96370.61;110814;1241;60518;-63
2022/03/30 09:49:40;;;;;;;;;;;;;;;20.07;20.67;96371.24;110877;1240;60478;-64
2022/03/30 09:52:16;;;;;;;;;;;;;;;20.38;20.38;96368.80;110804;1241;71813;-65
2022/03/30 09:55:14;;;;;;;;;;;;;;;19.99;20.83;96365.99;110719;1241;68975;-68
2022/03/30 09:57:44;;;;;;;;;;;;;;;20.25;20.67;96352.44;110096;1250;69402;-66
2022/03/30 10:00:15;;;;;;;;;;;;;;;20.85;19.87;96362.56;110044;1248;60575;-67
2022/03/30 10:02:45;;;;;;;;;;;;;;;20.64;19.57;96362.95;110113;1247;60454;-66
2022/03/30 10:05:19;;;;;;;;;;;;;;;20.24;20.14;96366.48;110079;1247;72353;-67
2022/03/30 10:07:49;;;;;;;;;;;;;;;19.84;20.49;96368.33;110044;1247;68600;-63
2022/03/30 10:10:19;;;;;;;;;;;;;;;20.16;19.96;96369.71;109845;1247;69496;-63
2022/03/30 10:12:49;;;;;;;;;;;;;;;19.72;20.53;96360.79;109901;1247;60552;-65
2022/03/30 10:15:20;;;;;;;;;;;;;;;20.27;20.24;96357.06;110125;1247;60499;-67
2022/03/30 10:17:49;;;;;;;;;;;;;;;21.02;19.42;96359.02;110110;1247;72374;-64
2022/03/30 10:20:21;;;;;;;;;;;;;;;20.12;20.24;96372.29;110121;1247;68569;-62
2022/03/30 10:22:52;;;;;;;;;;;;;;;20.11;20.27;96367.29;109982;1247;69740;-65
2022/03/30 10:25:26;;;;;;;;;;;;;;;19.99;20.56;96358.84;110063;1247;61034;-70
2022/03/30 10:27:57;;;;;;;;;;;;;;;20.34;20.37;96361.02;110095;1247;60525;-66
2022/03/30 10:30:30;;;;;;;;;;;;;;;20.77;19.67;96353.51;110073;1247;71555;-67
2022/03/30 10:33:00;;;;;;;;;;;;;;;20.04;20.51;96364.34;110086;1247;67787;-65
2022/03/30 10:35:40;;;;;;;;;;;;;;;19.82;20.97;96355.79;110461;1241;68584;-65
2022/03/30 10:38:10;;;;;;;;;;;;;;;19.87;20.76;96351.88;110843;1241;60479;-67
2022/03/30 10:40:41;;;;;;;;;;;;;;;19.86;20.64;96347.81;110889;1241;60495;-65
2022/03/30 10:43:11;;;;;;;;;;;;;;;19.88;20.63;96358.62;110671;1241;71872;-66
2022/03/30 10:45:41;;;;;;;;;;;;;;;19.92;20.68;96354.64;110857;1241;67975;-68
2022/03/30 10:48:16;;;;;;;;;;;;;;;20.24;20.27;96348.20;110842;1241;68556;-66
2022/03/30 10:50:47;;;;;;;;;;;;;;;20.66;20.03;96341.99;110865;1241;60584;-67
2022/03/30 10:53:31;;;;;;;;;;;;;;;20.84;19.79;96337.86;110889;1241;60454;-66
2022/03/30 10:56:07;;;;;;;;;;;;;;;20.56;19.72;96334.31;110785;1241;72146;-64
2022/03/30 10:58:37;;;;;;;;;;;;;;;20.84;19.83;96331.09;110883;1241;67710;-64
2022/03/30 11:01:14;;;;;;;;;;;;;;;20.57;19.81;96335.63;110753;1241;68638;-65
2022/03/30 11:03:56;;;;;;;;;;;;;;;20.15;20.33;96327.67;110814;1241;60535;-64
2022/03/30 11:06:27;;;;;;;;;;;;;;;19.91;20.66;96318.20;110800;1241;60542;-66
2022/03/30 11:09:01;;;;;;;;;;;;;;;20.07;20.36;96327.70;110896;1241;72404;-66
2022/03/30 11:11:39;;;;;;;;;;;;;;;19.94;20.56;96323.38;110898;1241;69035;-63
2022/03/30 11:14:24;;;;;;;;;;;;;;;19.64;20.81;96307.54;110855;1241;69806;-65
2022/03/30 11:17:01;;;;;;;;;;;;;;;19.80;20.65;96320.77;110863;1241;60526;-65
2022/03/30 11:19:55;;;;;;;;;;;;;;;19.68;20.44;96319.27;110863;1241;60523;-65
2022/03/30 11:22:32;;;;;;;;;;;;;;;19.84;20.38;96322.50;110905;1241;73042;-65
2022/03/30 11:25:04;;;;;;;;;;;;;;;19.72;20.45;96315.95;111125;1240;68505;-65
2022/03/30 11:27:34;;;;;;;;;;;;;;;20.28;19.82;96307.44;111069;1240;68597;-66
2022/03/30 11:30:08;;;;;;;;;;;;;;;20.57;19.64;96306.52;110722;1240;60487;-63
2022/03/30 11:32:39;;;;;;;;;;;;;;;20.40;19.63;96308.51;110823;1241;60490;-64
2022/03/30 11:35:10;;;;;;;;;;;;;;;20.22;19.81;96305.61;111046;1241;71373;-63
2022/03/30 11:37:41;;;;;;;;;;;;;;;20.07;19.83;96302.58;111147;1240;69128;-64
2022/03/30 11:40:12;;;;;;;;;;;;;;;19.82;19.78;96304.73;110864;1241;68654;-65
2022/03/30 11:42:49;;;;;;;;;;;;;;;19.87;19.71;96301.92;111156;1240;60550;-65
2022/03/30 11:45:20;;;;;;;;;;;;;;;19.97;19.90;96303.31;111121;1240;60514;-65
2022/03/30 11:47:58;;;;;;;;;;;;;;;20.25;19.74;96305.17;111082;1241;71789;-65
2022/03/30 11:50:41;;;;;;;;;;;;;;;20.52;19.38;96300.58;110918;1240;68534;-68
2022/03/30 11:53:14;;;;;;;;;;;;;;;20.28;19.58;96306.73;111093;1240;68617;-65
2022/03/30 11:55:53;;;;;;;;;;;;;;;19.74;20.16;96311.41;111120;1239;60518;-65
2022/03/30 11:58:39;;;;;;;;;;;;;;;19.74;20.32;96302.86;111143;1240;60526;-68
2022/03/30 12:01:10;;;;;;;;;;;;;;;19.68;20.09;96301.55;110838;1241;71655;-64
2022/03/30 12:03:40;;;;;;;;;;;;;;;19.55;20.29;96284.66;110853;1240;68636;-68
2022/03/30 12:06:10;;;;;;;;;;;;;;;19.59;20.09;96296.45;111095;1241;68635;-67
2022/03/30 12:08:46;;;;;;;;;;;;;;;19.40;20.07;96282.20;111163;1240;60544;-66
2022/03/30 12:11:28;;;;;;;;;;;;;;;19.31;20.36;96284.50;110867;1241;60421;-67
2022/03/30 12:13:59;;;;;;;;;;;;;;;19.31;20.35;96281.69;111161;1239;71575;-67
2022/03/30 12:16:28;;;;;;;;;;;;;;;19.26;20.19;96288.66;111179;1241;68675;-64
2022/03/30 12:19:00;;;;;;;;;;;;;;;18.69;20.55;96278.45;111071;1240;68665;-68
2022/03/30 12:21:34;;;;;;;;;;;;;;;18.86;20.47;96277.27;110795;1241;60549;-63
2022/03/30 12:24:06;;;;;;;;;;;;;;;18.83;20.67;96277.77;111040;1241;60491;-65
2022/03/30 12:26:50;;;;;;;;;;;;;;;18.82;20.78;96277.02;111173;1241;71832;-65
2022/03/30 12:29:20;;;;;;;;;;;;;;;18.57;21.17;96271.48;111124;1241;67805;-65
2022/03/30 12:31:49;;;;;;;;;;;;;;;18.58;21.18;96276.66;111075;1241;69511;-64
2022/03/30 12:34:19;;;;;;;;;;;;;;;18.37;21.44;96264.61;111157;1240;60544;-67
2022/03/30 12:36:51;;;;;;;;;;;;;;;18.31;21.47;96263.20;111158;1240;60462;-65
2022/03/30 12:39:25;;;;;;;;;;;;;;;18.53;21.24;96263.70;110786;1241;71601;-67
2022/03/30 12:42:04;;;;;;;;;;;;;;;18.53;21.21;96259.68;111128;1239;67831;-66
2022/03/30 12:44:40;;;;;;;;;;;;;;;18.56;21.36;96262.59;110772;1240;69440;-68
2022/03/30 12:47:30;;;;;;;;;;;;;;;18.71;21.23;96260.77;111135;1240;60582;-67
2022/03/30 12:50:00;;;;;;;;;;;;;;;18.51;21.19;96257.35;110786;1241;60517;-67
2022/03/30 12:52:35;;;;;;;;;;;;;;;18.34;21.52;96259.85;110977;1240;72376;-66
2022/03/30 12:55:32;;;;;;;;;;;;;;;18.26;22.04;96254.48;110778;1241;68509;-65
2022/03/30 12:58:07;;;;;;;;;;;;;;;18.27;22.02;96245.17;111076;1240;69570;-63
2022/03/30 13:00:37;;;;;;;;;;;;;;;18.00;22.06;96247.96;111104;1241;60561;-65
2022/03/30 13:03:07;;;;;;;;;;;;;;;18.24;21.72;96240.95;111148;1241;60478;-64
2022/03/30 13:05:38;;;;;;;;;;;;;;;18.38;21.56;96236.95;111144;1240;72352;-62
2022/03/30 13:08:12;;;;;;;;;;;;;;;18.50;21.48;96242.54;111019;1240;68556;-66
2022/03/30 13:11:00;;;;;;;;;;;;;;;18.49;21.51;96239.33;110751;1241;69517;-64